createdAt,value
2022-08-24T00:01:23.728Z,21.76
2022-08-24T00:03:55.251Z,21.77
2022-08-24T00:06:22.917Z,21.46
2022-08-24T00:08:54.206Z,21.47
2022-08-24T00:11:23.779Z,21.62
2022-08-24T00:13:53.487Z,21.56
2022-08-24T00:16:23.200Z,21.54
2022-08-24T00:19:41.137Z,21.55
2022-08-24T00:22:08.127Z,21.61
2022-08-24T00:24:34.970Z,21.39
2022-08-24T00:27:08.223Z,21.37
2022-08-24T00:29:36.141Z,21.41
2022-08-24T00:32:02.956Z,21.33
2022-08-24T00:34:30.081Z,21.19
2022-08-24T00:36:56.807Z,21.20
2022-08-24T00:39:23.837Z,21.10
2022-08-24T00:41:51.727Z,21.05
2022-08-24T00:44:19.923Z,21.13
2022-08-24T00:46:58.706Z,21.05
2022-08-24T00:49:29.134Z,21.10
2022-08-24T00:52:24.745Z,21.03
2022-08-24T00:54:56.240Z,20.70
2022-08-24T00:57:35.356Z,20.78
2022-08-24T01:00:09.402Z,20.77
2022-08-24T01:02:38.481Z,20.72
2022-08-24T01:05:07.851Z,20.63
2022-08-24T01:07:36.107Z,20.75
2022-08-24T01:10:09.478Z,20.69
2022-08-24T01:12:38.185Z,20.62
2022-08-24T01:15:15.904Z,20.56
2022-08-24T01:18:02.410Z,20.44
2022-08-24T01:20:29.287Z,20.46
2022-08-24T01:23:04.168Z,20.33
2022-08-24T01:25:34.675Z,20.26
2022-08-24T01:28:11.158Z,20.46
2022-08-24T01:30:37.991Z,20.42
2022-08-24T01:33:08.452Z,20.28
2022-08-24T01:35:39.350Z,20.25
2022-08-24T01:38:11.690Z,20.36
2022-08-24T01:40:44.929Z,20.29
2022-08-24T01:43:12.118Z,20.27
2022-08-24T01:45:39.056Z,20.20
2022-08-24T01:48:08.547Z,20.11
2022-08-24T01:53:26.660Z,20.02
2022-08-24T01:55:53.289Z,20.19
2022-08-24T01:58:20.165Z,20.22
2022-08-24T02:00:46.901Z,20.36
2022-08-24T02:03:14.284Z,20.27
2022-08-24T02:05:43.855Z,20.07
2022-08-24T02:08:14.403Z,20.20
2022-08-24T02:10:41.056Z,20.23
2022-08-24T02:13:15.285Z,20.21
2022-08-24T02:15:42.573Z,20.07
2022-08-24T02:18:15.352Z,19.90
2022-08-24T02:20:43.359Z,19.95
2022-08-24T02:23:10.269Z,19.92
2022-08-24T02:25:37.049Z,19.94
2022-08-24T02:28:04.399Z,19.79
2022-08-24T02:30:31.647Z,19.87
2022-08-24T02:32:59.189Z,19.93
2022-08-24T02:35:27.755Z,20.06
2022-08-24T02:37:54.429Z,20.12
2022-08-24T02:40:21.903Z,20.00
2022-08-24T02:42:49.415Z,19.84
2022-08-24T02:45:16.301Z,19.84
2022-08-24T02:47:45.189Z,19.87
2022-08-24T02:50:14.537Z,19.82
2022-08-24T02:52:42.125Z,19.83
2022-08-24T02:55:12.135Z,19.79
2022-08-24T02:57:39.225Z,19.77
2022-08-24T03:00:10.622Z,19.88
2022-08-24T03:02:42.039Z,19.86
2022-08-24T03:05:10.194Z,19.69
2022-08-24T03:07:37.511Z,19.59
2022-08-24T03:10:05.924Z,19.63
2022-08-24T03:12:34.660Z,19.72
2022-08-24T03:15:03.085Z,19.66
2022-08-24T03:17:33.661Z,19.52
2022-08-24T03:20:01.772Z,19.47
2022-08-24T03:22:28.886Z,19.74
2022-08-24T03:24:55.484Z,20.02
2022-08-24T03:27:22.525Z,19.89
2022-08-24T03:29:49.937Z,20.00
2022-08-24T03:32:16.914Z,19.90
2022-08-24T03:34:44.001Z,19.78
2022-08-24T03:37:12.706Z,19.65
2022-08-24T03:39:40.059Z,19.47
2022-08-24T03:42:07.913Z,19.25
2022-08-24T03:44:35.169Z,19.23
2022-08-24T03:47:02.203Z,19.26
2022-08-24T03:49:29.991Z,19.33
2022-08-24T03:51:56.642Z,19.26
2022-08-24T03:54:23.369Z,19.26
2022-08-24T03:56:51.380Z,19.20
2022-08-24T03:59:20.085Z,18.91
2022-08-24T04:01:49.009Z,19.20
2022-08-24T04:04:15.715Z,19.32
2022-08-24T04:06:46.673Z,19.25
2022-08-24T04:09:13.463Z,19.35
2022-08-24T04:11:45.525Z,19.27
2022-08-24T04:14:27.579Z,19.14
2022-08-24T04:17:20.639Z,19.02
2022-08-24T04:20:00.227Z,19.22
2022-08-24T04:22:30.777Z,19.42
2022-08-24T04:24:57.657Z,19.38
2022-08-24T04:27:27.159Z,19.33
2022-08-24T04:29:53.926Z,19.45
2022-08-24T04:32:21.717Z,19.56
2022-08-24T04:34:48.514Z,19.50
2022-08-24T04:37:15.635Z,19.67
2022-08-24T04:39:42.645Z,19.72
2022-08-24T04:42:33.449Z,19.89
2022-08-24T04:45:00.943Z,20.11
2022-08-24T04:47:27.648Z,20.39
2022-08-24T04:49:54.519Z,20.54
2022-08-24T04:52:21.385Z,20.74
2022-08-24T04:54:48.129Z,20.91
2022-08-24T04:57:19.546Z,20.94
2022-08-24T04:59:47.614Z,20.49
2022-08-24T05:02:14.499Z,20.24
2022-08-24T05:04:41.509Z,21.15
2022-08-24T05:07:10.959Z,21.35
2022-08-24T05:09:40.945Z,21.86
2022-08-24T05:12:08.011Z,22.25
2022-08-24T05:14:38.433Z,22.50
2022-08-24T05:17:05.096Z,22.86
2022-08-24T05:19:35.954Z,22.98
2022-08-24T05:22:02.603Z,23.23
2022-08-24T05:24:30.505Z,23.03
2022-08-24T05:26:57.660Z,22.95
2022-08-24T05:29:25.688Z,23.41
2022-08-24T05:31:52.408Z,23.40
2022-08-24T05:34:19.384Z,23.48
2022-08-24T05:36:46.616Z,23.64
2022-08-24T05:39:24.437Z,24.32
2022-08-24T05:41:54.868Z,23.86
2022-08-24T05:44:30.286Z,24.40
2022-08-24T05:47:01.062Z,23.99
2022-08-24T05:49:28.329Z,24.16
2022-08-24T05:51:55.218Z,24.56
2022-08-24T05:54:23.314Z,24.77
2022-08-24T05:57:04.545Z,24.86
2022-08-24T05:59:36.030Z,24.95
2022-08-24T06:02:08.650Z,24.68
2022-08-24T06:04:38.112Z,24.48
2022-08-24T06:07:06.291Z,24.53
2022-08-24T06:09:34.272Z,23.69
2022-08-24T06:12:00.932Z,23.03
2022-08-24T06:14:28.125Z,22.64
2022-08-24T06:16:57.944Z,22.82
2022-08-24T06:19:26.996Z,22.49
2022-08-24T06:21:55.274Z,22.27
2022-08-24T06:24:42.528Z,22.15
2022-08-24T06:27:21.328Z,22.23
2022-08-24T06:30:10.077Z,22.75
2022-08-24T06:32:59.589Z,23.59
2022-08-24T06:35:37.217Z,22.96
2022-08-24T06:38:06.428Z,23.59
2022-08-24T06:40:36.180Z,23.94
2022-08-24T06:43:04.346Z,24.60
2022-08-24T06:45:37.908Z,25.18
2022-08-24T06:48:05.382Z,25.59
2022-08-24T06:50:33.020Z,25.55
2022-08-24T06:53:01.154Z,24.79
2022-08-24T06:55:28.799Z,24.76
2022-08-24T06:57:55.743Z,24.92
2022-08-24T07:00:22.725Z,24.91
2022-08-24T07:02:49.621Z,24.52
2022-08-24T07:05:17.275Z,24.85
2022-08-24T07:08:13.649Z,24.93
2022-08-24T07:10:40.555Z,25.22
2022-08-24T07:13:08.292Z,25.69
2022-08-24T07:15:35.617Z,25.69
2022-08-24T07:18:16.549Z,25.55
2022-08-24T07:20:48.267Z,25.03
2022-08-24T07:23:42.273Z,24.86
2022-08-24T07:26:21.710Z,24.99
2022-08-24T07:28:51.930Z,25.02
2022-08-24T07:31:19.398Z,25.39
2022-08-24T07:33:53.504Z,25.56
2022-08-24T07:36:22.674Z,25.70
2022-08-24T07:38:54.067Z,25.92
2022-08-24T07:44:17.369Z,26.07
2022-08-24T07:46:44.415Z,26.32
2022-08-24T07:49:31.348Z,26.11
2022-08-24T07:52:02.006Z,25.95
2022-08-24T07:54:29.060Z,26.07
2022-08-24T07:56:56.554Z,26.00
2022-08-24T07:59:23.311Z,25.96
2022-08-24T08:01:52.347Z,25.95
2022-08-24T08:04:24.343Z,25.85
2022-08-24T08:06:52.507Z,25.76
2022-08-24T08:09:19.592Z,25.85
2022-08-24T08:11:46.364Z,25.69
2022-08-24T08:14:14.826Z,25.85
2022-08-24T08:16:43.697Z,26.09
2022-08-24T08:19:11.283Z,25.99
2022-08-24T08:22:04.992Z,26.02
2022-08-24T08:24:38.195Z,26.01
2022-08-24T08:27:05.219Z,26.04
2022-08-24T08:29:43.006Z,26.21
2022-08-24T08:32:14.539Z,25.93
2022-08-24T08:34:41.348Z,25.91
2022-08-24T08:37:08.635Z,25.87
2022-08-24T08:39:35.834Z,25.90
2022-08-24T08:42:16.260Z,26.05
2022-08-24T08:45:15.374Z,26.05
2022-08-24T08:48:27.721Z,26.13
2022-08-24T08:51:16.343Z,26.18
2022-08-24T08:53:58.174Z,26.21
2022-08-24T08:56:57.211Z,26.29
2022-08-24T08:59:56.282Z,26.07
2022-08-24T09:02:38.642Z,26.38
2022-08-24T09:05:27.946Z,26.28
2022-08-24T09:08:19.792Z,26.31
2022-08-24T09:11:12.713Z,26.56
2022-08-24T09:14:00.891Z,26.53
2022-08-24T09:16:57.080Z,26.57
2022-08-24T09:20:02.432Z,26.57
2022-08-24T09:22:31.147Z,26.84
2022-08-24T09:25:04.796Z,26.74
2022-08-24T09:28:19.515Z,26.68
2022-08-24T09:31:17.639Z,27.05
2022-08-24T09:34:07.255Z,26.80
2022-08-24T09:36:54.593Z,26.84
2022-08-24T09:39:21.173Z,26.96
2022-08-24T09:42:16.598Z,27.11
2022-08-24T09:45:12.773Z,27.18
2022-08-24T09:48:02.529Z,27.21
2022-08-24T09:50:47.280Z,27.16
2022-08-24T09:53:54.751Z,27.09
2022-08-24T09:56:21.437Z,27.32
2022-08-24T09:59:00.232Z,27.55
2022-08-24T10:01:31.085Z,27.24
2022-08-24T10:04:04.683Z,27.13
2022-08-24T10:06:50.231Z,27.41
2022-08-24T10:09:41.271Z,27.43
2022-08-24T10:12:15.917Z,27.47
2022-08-24T10:14:59.071Z,27.69
2022-08-24T10:17:58.254Z,27.71
2022-08-24T10:20:28.445Z,27.63
2022-08-24T10:23:32.678Z,27.87
2022-08-24T10:26:04.764Z,27.75
2022-08-24T10:28:37.654Z,27.88
2022-08-24T10:31:13.115Z,27.99
2022-08-24T10:34:03.522Z,28.00
2022-08-24T10:37:14.955Z,28.29
2022-08-24T10:40:05.016Z,28.41
2022-08-24T10:43:03.374Z,28.27
2022-08-24T10:45:30.531Z,28.18
2022-08-24T10:48:33.387Z,28.18
2022-08-24T10:51:16.507Z,28.28
2022-08-24T10:53:49.427Z,28.29
2022-08-24T10:56:19.574Z,28.69
2022-08-24T10:58:58.651Z,28.57
2022-08-24T11:01:37.286Z,28.48
2022-08-24T11:04:09.225Z,28.41
2022-08-24T11:06:39.389Z,28.51
2022-08-24T11:09:19.653Z,28.69
2022-08-24T11:11:49.084Z,28.87
2022-08-24T11:14:15.597Z,28.62
2022-08-24T11:16:45.222Z,28.65
2022-08-24T11:19:29.763Z,28.98
2022-08-24T11:21:59.011Z,29.05
2022-08-24T11:24:39.042Z,29.12
2022-08-24T11:27:19.400Z,28.77
2022-08-24T11:29:52.153Z,28.71
2022-08-24T11:32:37.987Z,28.87
2022-08-24T11:35:27.607Z,28.90
2022-08-24T11:37:59.139Z,28.78
2022-08-24T11:40:29.445Z,28.87
2022-08-24T11:43:27.512Z,29.23
2022-08-24T11:46:11.408Z,29.34
2022-08-24T11:49:08.221Z,29.19
2022-08-24T11:51:43.810Z,29.23
2022-08-24T11:54:24.784Z,29.62
2022-08-24T11:56:57.785Z,29.35
2022-08-24T11:59:29.292Z,29.44
2022-08-24T12:02:05.466Z,29.31
2022-08-24T12:04:44.395Z,29.07
2022-08-24T12:07:58.657Z,29.37
2022-08-24T12:10:40.911Z,29.16
2022-08-24T12:13:38.377Z,29.11
2022-08-24T12:16:20.337Z,29.04
2022-08-24T12:19:01.253Z,29.43
2022-08-24T12:21:32.510Z,29.57
2022-08-24T12:24:08.844Z,29.66
2022-08-24T12:26:44.840Z,29.80
2022-08-24T12:29:31.711Z,29.84
2022-08-24T12:32:00.691Z,29.64
2022-08-24T12:34:45.450Z,29.64
2022-08-24T12:37:36.158Z,29.57
2022-08-24T12:40:11.704Z,29.59
2022-08-24T12:42:41.260Z,29.79
2022-08-24T12:45:11.889Z,29.81
2022-08-24T12:47:57.404Z,29.94
2022-08-24T12:50:48.389Z,29.89
2022-08-24T12:53:40.108Z,30.28
2022-08-24T12:56:34.631Z,30.15
2022-08-24T12:59:31.532Z,30.11
2022-08-24T13:02:27.787Z,30.25
2022-08-24T13:05:01.356Z,30.16
2022-08-24T13:07:31.510Z,30.16
2022-08-24T13:09:58.038Z,30.11
2022-08-24T13:12:30.504Z,30.27
2022-08-24T13:15:25.935Z,30.18
2022-08-24T13:18:02.594Z,30.24
2022-08-24T13:20:35.092Z,30.39
2022-08-24T13:23:04.425Z,30.40
2022-08-24T13:25:59.751Z,30.33
2022-08-24T13:28:26.579Z,30.13
2022-08-24T13:30:53.463Z,30.03
2022-08-24T13:33:52.877Z,30.09
2022-08-24T13:36:31.894Z,30.45
2022-08-24T13:39:37.513Z,30.54
2022-08-24T13:42:16.415Z,30.44
2022-08-24T13:45:09.006Z,30.68
2022-08-24T13:47:57.549Z,30.82
2022-08-24T13:50:48.514Z,31.06
2022-08-24T13:53:36.958Z,30.91
2022-08-24T13:56:12.540Z,30.74
2022-08-24T13:59:00.410Z,30.59
2022-08-24T14:01:33.997Z,30.49
2022-08-24T14:04:25.591Z,30.65
2022-08-24T14:07:14.506Z,30.71
2022-08-24T14:10:26.148Z,30.72
2022-08-24T14:13:14.579Z,30.93
2022-08-24T14:16:11.196Z,30.80
2022-08-24T14:18:57.864Z,30.77
2022-08-24T14:21:35.046Z,30.54
2022-08-24T14:24:25.071Z,30.40
2022-08-24T14:27:04.856Z,30.53
2022-08-24T14:29:40.810Z,30.47
2022-08-24T14:32:08.478Z,30.44
2022-08-24T14:34:41.017Z,30.53
2022-08-24T14:37:13.775Z,30.39
2022-08-24T14:39:52.381Z,30.38
2022-08-24T14:42:36.181Z,30.32
2022-08-24T14:45:07.391Z,30.36
2022-08-24T14:48:11.339Z,30.31
2022-08-24T14:50:48.185Z,30.19
2022-08-24T14:53:30.188Z,30.28
2022-08-24T14:56:08.984Z,30.24
2022-08-24T14:58:53.557Z,30.17
2022-08-24T15:01:41.475Z,30.17
2022-08-24T15:04:36.160Z,30.08
2022-08-24T15:07:31.039Z,30.09
2022-08-24T15:09:59.696Z,30.04
2022-08-24T15:12:35.310Z,29.91
2022-08-24T15:15:15.362Z,29.89
2022-08-24T15:17:51.180Z,29.91
2022-08-24T15:20:46.702Z,29.93
2022-08-24T15:23:19.767Z,30.05
2022-08-24T15:25:56.583Z,30.16
2022-08-24T15:28:29.460Z,30.00
2022-08-24T15:31:03.663Z,29.91
2022-08-24T15:33:31.256Z,29.93
2022-08-24T15:36:15.461Z,29.98
2022-08-24T15:38:42.549Z,29.84
2022-08-24T15:41:21.654Z,30.13
2022-08-24T15:43:58.695Z,30.18
2022-08-24T15:46:35.618Z,30.13
2022-08-24T15:49:14.460Z,30.15
2022-08-24T15:52:06.192Z,30.03
2022-08-24T15:54:54.923Z,30.06
2022-08-24T15:57:24.274Z,30.07
2022-08-24T15:59:53.079Z,29.75
2022-08-24T16:02:28.570Z,29.52
2022-08-24T16:05:12.690Z,29.31
2022-08-24T16:08:02.588Z,29.31
2022-08-24T16:10:50.977Z,29.22
2022-08-24T16:13:17.613Z,29.23
2022-08-24T16:16:07.124Z,29.18
2022-08-24T16:18:45.955Z,29.05
2022-08-24T16:21:34.169Z,28.94
2022-08-24T16:24:29.994Z,29.01
2022-08-24T16:27:01.976Z,28.94
2022-08-24T16:29:34.594Z,28.93
2022-08-24T16:32:22.862Z,29.01
2022-08-24T16:35:09.082Z,29.10
2022-08-24T16:37:41.911Z,28.96
2022-08-24T16:40:09.812Z,28.90
2022-08-24T16:42:37.221Z,28.90
2022-08-24T16:45:09.633Z,28.76
2022-08-24T16:47:36.597Z,28.85
2022-08-24T16:50:04.534Z,28.74
2022-08-24T16:52:31.250Z,28.71
2022-08-24T16:54:58.021Z,28.70
2022-08-24T16:57:30.604Z,28.58
2022-08-24T16:59:57.279Z,28.58
2022-08-24T17:02:27.394Z,28.61
2022-08-24T17:04:54.741Z,28.59
2022-08-24T17:07:26.484Z,28.46
2022-08-24T17:09:54.105Z,28.34
2022-08-24T17:12:21.011Z,28.44
2022-08-24T17:14:48.139Z,28.38
2022-08-24T17:17:21.410Z,28.14
2022-08-24T17:19:53.563Z,28.17
2022-08-24T17:22:21.028Z,28.24
2022-08-24T17:24:47.756Z,28.02
2022-08-24T17:27:17.399Z,27.91
2022-08-24T17:29:44.991Z,27.90
2022-08-24T17:32:12.977Z,27.98
2022-08-24T17:34:39.801Z,27.87
2022-08-24T17:37:07.314Z,27.83
2022-08-24T17:39:34.196Z,27.77
2022-08-24T17:42:01.807Z,27.63
2022-08-24T17:44:32.073Z,27.61
2022-08-24T17:47:00.792Z,27.46
2022-08-24T17:49:27.894Z,27.55
2022-08-24T17:51:55.262Z,27.31
2022-08-24T17:54:22.070Z,27.17
2022-08-24T17:56:50.968Z,26.97
2022-08-24T17:59:29.983Z,26.80
2022-08-24T18:02:02.147Z,26.75
2022-08-24T18:04:30.499Z,26.73
2022-08-24T18:06:59.190Z,26.49
2022-08-24T18:09:35.135Z,26.46
2022-08-24T18:12:05.326Z,26.30
2022-08-24T18:14:34.504Z,26.25
2022-08-24T18:17:07.281Z,26.22
2022-08-24T18:19:34.569Z,25.92
2022-08-24T18:22:01.935Z,26.13
2022-08-24T18:24:32.415Z,26.03
2022-08-24T18:27:28.463Z,25.84
2022-08-24T18:30:01.374Z,25.48
2022-08-24T18:32:31.371Z,25.71
2022-08-24T18:34:59.124Z,25.71
2022-08-24T18:37:25.828Z,25.55
2022-08-24T18:39:52.587Z,25.64
2022-08-24T18:42:19.327Z,25.37
2022-08-24T18:44:45.986Z,25.23
2022-08-24T18:47:12.636Z,25.18
2022-08-24T18:49:39.314Z,24.96
2022-08-24T18:52:09.676Z,25.07
2022-08-24T18:54:39.261Z,24.86
2022-08-24T18:57:07.062Z,24.79
2022-08-24T18:59:35.472Z,24.31
2022-08-24T19:02:30.856Z,23.97
2022-08-24T19:05:01.155Z,23.81
2022-08-24T19:07:29.406Z,23.94
2022-08-24T19:09:56.088Z,24.25
2022-08-24T19:12:22.990Z,24.39
2022-08-24T19:14:54.533Z,24.22
2022-08-24T19:17:21.217Z,24.22
2022-08-24T19:19:47.913Z,24.36
2022-08-24T19:22:18.639Z,24.28
2022-08-24T19:24:46.134Z,24.17
2022-08-24T19:27:13.277Z,24.21
2022-08-24T19:29:55.425Z,23.95
2022-08-24T19:32:24.914Z,24.20
2022-08-24T19:34:52.459Z,24.12
2022-08-24T19:37:20.703Z,23.98
2022-08-24T19:39:47.973Z,23.92
2022-08-24T19:42:17.420Z,24.04
2022-08-24T19:45:02.735Z,23.70
2022-08-24T19:47:34.248Z,23.72
2022-08-24T19:50:05.510Z,23.76
2022-08-24T19:52:32.856Z,23.65
2022-08-24T19:54:59.742Z,23.58
2022-08-24T19:57:47.750Z,23.60
2022-08-24T20:00:17.374Z,23.53
2022-08-24T20:02:45.159Z,23.39
2022-08-24T20:05:11.884Z,23.55
2022-08-24T20:07:38.728Z,23.55
2022-08-24T20:10:12.767Z,23.31
2022-08-24T20:12:40.424Z,23.34
2022-08-24T20:15:08.011Z,23.50
2022-08-24T20:17:35.673Z,23.55
2022-08-24T20:20:03.921Z,23.46
2022-08-24T20:22:30.598Z,23.49
2022-08-24T20:24:57.181Z,23.34
2022-08-24T20:27:25.718Z,23.53
2022-08-24T20:29:53.448Z,23.51
2022-08-24T20:32:20.435Z,23.32
2022-08-24T20:34:48.308Z,23.19
2022-08-24T20:37:21.879Z,23.31
2022-08-24T20:39:48.807Z,23.18
2022-08-24T20:42:21.042Z,22.95
2022-08-24T20:44:49.478Z,22.97
2022-08-24T20:47:16.907Z,23.13
2022-08-24T20:49:43.794Z,23.14
2022-08-24T20:52:10.437Z,23.01
2022-08-24T20:54:39.606Z,22.93
2022-08-24T20:57:07.957Z,22.81
2022-08-24T20:59:35.139Z,22.76
2022-08-24T21:02:03.038Z,22.59
2022-08-24T21:04:30.000Z,22.62
2022-08-24T21:06:57.149Z,22.62
2022-08-24T21:09:24.310Z,22.71
2022-08-24T21:11:51.037Z,22.64
2022-08-24T21:14:18.124Z,22.50
2022-08-24T21:16:44.790Z,22.56
2022-08-24T21:19:17.390Z,22.45
2022-08-24T21:21:46.625Z,22.40
2022-08-24T21:24:13.622Z,22.26
2022-08-24T21:26:40.637Z,22.19
2022-08-24T21:29:09.389Z,22.26
2022-08-24T21:31:36.211Z,22.24
2022-08-24T21:34:21.416Z,22.14
2022-08-24T21:36:48.652Z,21.92
2022-08-24T21:39:15.266Z,22.06
2022-08-24T21:41:41.943Z,21.89
2022-08-24T21:44:08.591Z,21.87
2022-08-24T21:46:37.874Z,21.82
2022-08-24T21:49:05.028Z,21.70
2022-08-24T21:51:31.989Z,21.61
2022-08-24T21:53:59.679Z,21.56
2022-08-24T21:56:29.240Z,21.51
2022-08-24T21:58:55.913Z,21.29
2022-08-24T22:01:22.563Z,21.31
2022-08-24T22:03:49.371Z,21.19
2022-08-24T22:06:16.106Z,21.23
2022-08-24T22:08:43.952Z,21.10
2022-08-24T22:11:12.607Z,20.99
2022-08-24T22:13:39.597Z,20.86
2022-08-24T22:16:06.788Z,20.97
2022-08-24T22:18:33.923Z,21.10
2022-08-24T22:21:00.576Z,21.40
2022-08-24T22:23:27.287Z,21.39
2022-08-24T22:25:54.327Z,21.37
2022-08-24T22:28:21.031Z,21.39
2022-08-24T22:30:48.879Z,21.73
2022-08-24T22:33:15.995Z,21.65
2022-08-24T22:35:45.654Z,21.69
2022-08-24T22:38:12.668Z,21.79
2022-08-24T22:40:39.340Z,21.87
2022-08-24T22:43:06.145Z,22.13
2022-08-24T22:45:32.786Z,21.84
2022-08-24T22:47:59.413Z,21.74
2022-08-24T22:50:26.050Z,21.87
2022-08-24T22:52:53.669Z,21.70
2022-08-24T22:55:20.358Z,21.77
2022-08-24T22:57:51.316Z,21.78
2022-08-24T23:00:18.403Z,21.65
2022-08-24T23:02:45.118Z,21.69
2022-08-24T23:05:11.838Z,21.81
2022-08-24T23:07:38.482Z,21.73
2022-08-24T23:10:05.900Z,21.70
2022-08-24T23:12:33.048Z,21.54
2022-08-24T23:15:00.231Z,21.73
2022-08-24T23:17:26.875Z,21.85
2022-08-24T23:20:05.889Z,21.77
2022-08-24T23:22:35.781Z,22.08
2022-08-24T23:25:04.761Z,21.82
2022-08-24T23:27:32.949Z,21.55
2022-08-24T23:30:12.096Z,21.54
2022-08-24T23:32:39.356Z,21.37
2022-08-24T23:35:06.495Z,21.25
2022-08-24T23:37:33.300Z,21.27
2022-08-24T23:40:00.065Z,21.40
2022-08-24T23:42:26.874Z,21.24
2022-08-24T23:44:54.267Z,21.25
2022-08-24T23:47:21.817Z,21.27
2022-08-24T23:49:48.433Z,21.15
2022-08-24T23:52:28.485Z,21.18
2022-08-24T23:55:11.596Z,21.24
2022-08-24T23:57:46.931Z,21.20
